sensor_id;sensor_type;location;lat;lon;timestamp;pressure;altitude;pressure_sealevel;temperature;humidity
59110;BME280;44895;47.438;18.978;2022-12-18T00:03:02;101477.94;;;-2.72;100.00
59110;BME280;44895;47.438;18.978;2022-12-18T00:06:06;101489.81;;;-3.00;100.00
59110;BME280;44895;47.438;18.978;2022-12-18T00:09:10;101497.09;;;-2.77;100.00
59110;BME280;44895;47.438;18.978;2022-12-18T00:12:14;101504.75;;;-2.82;100.00
59110;BME280;44895;47.438;18.978;2022-12-18T00:15:18;101507.41;;;-2.90;100.00
59110;BME280;44895;47.438;18.978;2022-12-18T00:18:23;101515.56;;;-3.00;100.00
59110;BME280;44895;47.438;18.978;2022-12-18T00:21:29;101518.56;;;-3.03;100.00
59110;BME280;44895;47.438;18.978;2022-12-18T00:24:33;101528.75;;;-3.15;100.00
59110;BME280;44895;47.438;18.978;2022-12-18T00:27:37;101528.41;;;-3.04;100.00
59110;BME280;44895;47.438;18.978;2022-12-18T00:30:41;101532.22;;;-3.15;100.00
59110;BME280;44895;47.438;18.978;2022-12-18T00:33:45;101539.19;;;-3.30;100.00
59110;BME280;44895;47.438;18.978;2022-12-18T00:36:49;101542.34;;;-3.18;100.00
59110;BME280;44895;47.438;18.978;2022-12-18T00:39:54;101545.84;;;-3.34;100.00
59110;BME280;44895;47.438;18.978;2022-12-18T00:42:57;101551.63;;;-3.31;100.00
59110;BME280;44895;47.438;18.978;2022-12-18T00:46:02;101548.31;;;-3.24;100.00
59110;BME280;44895;47.438;18.978;2022-12-18T00:49:06;101548.50;;;-3.34;100.00
59110;BME280;44895;47.438;18.978;2022-12-18T00:52:10;101555.63;;;-3.35;100.00
59110;BME280;44895;47.438;18.978;2022-12-18T00:55:15;101568.41;;;-3.22;100.00
59110;BME280;44895;47.438;18.978;2022-12-18T00:58:19;101569.59;;;-3.24;100.00
59110;BME280;44895;47.438;18.978;2022-12-18T01:01:23;101577.75;;;-3.34;100.00
59110;BME280;44895;47.438;18.978;2022-12-18T01:04:27;101570.94;;;-3.37;100.00
59110;BME280;44895;47.438;18.978;2022-12-18T01:07:32;101569.44;;;-3.39;100.00
59110;BME280;44895;47.438;18.978;2022-12-18T01:10:36;101574.22;;;-3.35;100.00
59110;BME280;44895;47.438;18.978;2022-12-18T01:13:41;101573.41;;;-3.35;100.00
59110;BME280;44895;47.438;18.978;2022-12-18T01:16:45;101580.38;;;-3.26;100.00
59110;BME280;44895;47.438;18.978;2022-12-18T01:19:49;101588.88;;;-3.22;100.00
59110;BME280;44895;47.438;18.978;2022-12-18T01:22:53;101591.38;;;-3.29;100.00
59110;BME280;44895;47.438;18.978;2022-12-18T01:25:57;101593.03;;;-3.28;100.00
59110;BME280;44895;47.438;18.978;2022-12-18T01:29:02;101585.03;;;-3.20;100.00
59110;BME280;44895;47.438;18.978;2022-12-18T01:32:06;101602.78;;;-3.45;100.00
59110;BME280;44895;47.438;18.978;2022-12-18T01:35:10;101601.81;;;-3.44;100.00
59110;BME280;44895;47.438;18.978;2022-12-18T01:38:14;101603.66;;;-3.20;100.00
59110;BME280;44895;47.438;18.978;2022-12-18T01:41:21;101600.00;;;-3.35;100.00
59110;BME280;44895;47.438;18.978;2022-12-18T01:48:03;101607.97;;;-3.19;100.00
59110;BME280;44895;47.438;18.978;2022-12-18T01:51:10;101608.28;;;-3.38;100.00
59110;BME280;44895;47.438;18.978;2022-12-18T01:54:14;101623.22;;;-3.37;100.00
59110;BME280;44895;47.438;18.978;2022-12-18T01:57:19;101625.50;;;-3.59;100.00
59110;BME280;44895;47.438;18.978;2022-12-18T02:00:24;101620.88;;;-3.57;100.00
59110;BME280;44895;47.438;18.978;2022-12-18T02:03:28;101618.72;;;-3.45;100.00
59110;BME280;44895;47.438;18.978;2022-12-18T02:06:39;101618.22;;;-3.49;100.00
59110;BME280;44895;47.438;18.978;2022-12-18T02:13:30;101625.69;;;-3.52;100.00
59110;BME280;44895;47.438;18.978;2022-12-18T02:20:21;101639.00;;;-3.44;100.00
59110;BME280;44895;47.438;18.978;2022-12-18T02:23:52;101642.69;;;-3.37;100.00
59110;BME280;44895;47.438;18.978;2022-12-18T02:27:02;101643.47;;;-3.45;100.00
59110;BME280;44895;47.438;18.978;2022-12-18T02:30:09;101655.41;;;-3.57;100.00
59110;BME280;44895;47.438;18.978;2022-12-18T02:33:15;101656.91;;;-3.46;100.00
59110;BME280;44895;47.438;18.978;2022-12-18T02:36:22;101654.78;;;-3.42;100.00
59110;BME280;44895;47.438;18.978;2022-12-18T02:39:29;101658.25;;;-3.50;100.00
59110;BME280;44895;47.438;18.978;2022-12-18T02:42:39;101666.38;;;-3.52;100.00
59110;BME280;44895;47.438;18.978;2022-12-18T02:45:57;101665.13;;;-3.74;100.00
59110;BME280;44895;47.438;18.978;2022-12-18T02:49:48;101667.31;;;-3.61;100.00
59110;BME280;44895;47.438;18.978;2022-12-18T02:53:22;101668.13;;;-3.69;100.00
59110;BME280;44895;47.438;18.978;2022-12-18T02:56:36;101683.25;;;-3.69;100.00
59110;BME280;44895;47.438;18.978;2022-12-18T02:59:59;101676.28;;;-3.70;100.00
59110;BME280;44895;47.438;18.978;2022-12-18T03:03:24;101688.09;;;-3.65;100.00
59110;BME280;44895;47.438;18.978;2022-12-18T03:06:35;101691.91;;;-3.59;100.00
59110;BME280;44895;47.438;18.978;2022-12-18T03:09:47;101695.72;;;-3.70;100.00
59110;BME280;44895;47.438;18.978;2022-12-18T03:13:11;101701.72;;;-3.59;100.00
59110;BME280;44895;47.438;18.978;2022-12-18T03:16:28;101701.69;;;-3.68;100.00
59110;BME280;44895;47.438;18.978;2022-12-18T03:19:34;101709.00;;;-3.70;100.00
59110;BME280;44895;47.438;18.978;2022-12-18T03:22:42;101706.03;;;-3.58;100.00
59110;BME280;44895;47.438;18.978;2022-12-18T03:25:48;101710.28;;;-3.74;100.00
59110;BME280;44895;47.438;18.978;2022-12-18T03:29:09;101712.00;;;-3.65;100.00
59110;BME280;44895;47.438;18.978;2022-12-18T03:32:24;101728.44;;;-3.61;100.00
59110;BME280;44895;47.438;18.978;2022-12-18T03:35:33;101722.94;;;-3.68;100.00
59110;BME280;44895;47.438;18.978;2022-12-18T03:38:39;101737.63;;;-3.82;100.00
59110;BME280;44895;47.438;18.978;2022-12-18T03:41:57;101744.72;;;-3.90;100.00
59110;BME280;44895;47.438;18.978;2022-12-18T03:45:34;101747.81;;;-3.69;100.00
59110;BME280;44895;47.438;18.978;2022-12-18T03:48:44;101751.19;;;-3.93;100.00
59110;BME280;44895;47.438;18.978;2022-12-18T03:52:03;101751.00;;;-3.91;100.00
59110;BME280;44895;47.438;18.978;2022-12-18T03:55:09;101749.91;;;-3.81;100.00
59110;BME280;44895;47.438;18.978;2022-12-18T03:58:20;101748.31;;;-4.00;100.00
59110;BME280;44895;47.438;18.978;2022-12-18T04:01:37;101742.44;;;-4.12;100.00
59110;BME280;44895;47.438;18.978;2022-12-18T04:04:44;101756.03;;;-3.88;100.00
59110;BME280;44895;47.438;18.978;2022-12-18T04:07:50;101761.50;;;-3.90;100.00
59110;BME280;44895;47.438;18.978;2022-12-18T04:10:55;101764.66;;;-3.86;100.00
59110;BME280;44895;47.438;18.978;2022-12-18T04:14:00;101763.72;;;-4.03;100.00
59110;BME280;44895;47.438;18.978;2022-12-18T04:17:04;101765.13;;;-4.17;100.00
59110;BME280;44895;47.438;18.978;2022-12-18T04:20:10;101757.50;;;-4.20;100.00
59110;BME280;44895;47.438;18.978;2022-12-18T04:23:19;101773.00;;;-4.07;100.00
59110;BME280;44895;47.438;18.978;2022-12-18T04:26:23;101764.97;;;-4.16;100.00
59110;BME280;44895;47.438;18.978;2022-12-18T04:29:48;101774.06;;;-4.18;100.00
59110;BME280;44895;47.438;18.978;2022-12-18T04:32:55;101772.75;;;-4.14;100.00
59110;BME280;44895;47.438;18.978;2022-12-18T04:35:59;101773.44;;;-4.12;100.00
59110;BME280;44895;47.438;18.978;2022-12-18T04:39:03;101783.25;;;-4.31;100.00
59110;BME280;44895;47.438;18.978;2022-12-18T04:42:08;101783.44;;;-4.06;100.00
59110;BME280;44895;47.438;18.978;2022-12-18T04:45:12;101786.97;;;-4.23;100.00
59110;BME280;44895;47.438;18.978;2022-12-18T04:48:16;101805.63;;;-4.15;100.00
59110;BME280;44895;47.438;18.978;2022-12-18T04:51:20;101812.19;;;-4.19;100.00
59110;BME280;44895;47.438;18.978;2022-12-18T04:54:24;101805.47;;;-4.14;100.00
59110;BME280;44895;47.438;18.978;2022-12-18T04:57:29;101820.81;;;-4.26;100.00
59110;BME280;44895;47.438;18.978;2022-12-18T05:00:33;101812.97;;;-4.27;100.00
59110;BME280;44895;47.438;18.978;2022-12-18T05:03:37;101813.97;;;-4.46;100.00
59110;BME280;44895;47.438;18.978;2022-12-18T05:06:41;101823.66;;;-4.19;100.00
59110;BME280;44895;47.438;18.978;2022-12-18T05:09:45;101833.38;;;-4.28;100.00
59110;BME280;44895;47.438;18.978;2022-12-18T05:12:49;101836.59;;;-4.42;100.00
59110;BME280;44895;47.438;18.978;2022-12-18T05:16:02;101833.22;;;-4.44;100.00
59110;BME280;44895;47.438;18.978;2022-12-18T05:19:06;101827.16;;;-4.36;100.00
59110;BME280;44895;47.438;18.978;2022-12-18T05:22:11;101833.59;;;-4.21;100.00
59110;BME280;44895;47.438;18.978;2022-12-18T05:25:15;101828.75;;;-4.26;100.00
59110;BME280;44895;47.438;18.978;2022-12-18T05:28:19;101839.13;;;-4.14;100.00
59110;BME280;44895;47.438;18.978;2022-12-18T05:31:23;101835.50;;;-4.31;100.00
59110;BME280;44895;47.438;18.978;2022-12-18T05:34:29;101840.88;;;-4.41;100.00
59110;BME280;44895;47.438;18.978;2022-12-18T05:37:33;101849.53;;;-4.39;100.00
59110;BME280;44895;47.438;18.978;2022-12-18T05:40:41;101853.91;;;-4.66;100.00
59110;BME280;44895;47.438;18.978;2022-12-18T05:43:47;101863.16;;;-4.52;100.00
59110;BME280;44895;47.438;18.978;2022-12-18T05:46:51;101847.19;;;-4.42;100.00
59110;BME280;44895;47.438;18.978;2022-12-18T05:49:55;101858.47;;;-4.22;100.00
59110;BME280;44895;47.438;18.978;2022-12-18T05:52:59;101865.91;;;-4.26;100.00
59110;BME280;44895;47.438;18.978;2022-12-18T05:56:06;101870.06;;;-4.41;100.00
59110;BME280;44895;47.438;18.978;2022-12-18T05:59:11;101870.91;;;-4.86;100.00
59110;BME280;44895;47.438;18.978;2022-12-18T06:02:15;101869.34;;;-4.61;100.00
59110;BME280;44895;47.438;18.978;2022-12-18T06:05:18;101870.09;;;-4.69;100.00
59110;BME280;44895;47.438;18.978;2022-12-18T06:08:22;101877.09;;;-4.50;100.00
59110;BME280;44895;47.438;18.978;2022-12-18T06:11:27;101877.41;;;-4.71;100.00
59110;BME280;44895;47.438;18.978;2022-12-18T06:14:31;101873.06;;;-4.72;100.00
59110;BME280;44895;47.438;18.978;2022-12-18T06:17:35;101882.63;;;-4.61;100.00
59110;BME280;44895;47.438;18.978;2022-12-18T06:20:39;101891.16;;;-4.39;100.00
59110;BME280;44895;47.438;18.978;2022-12-18T06:23:45;101894.69;;;-4.31;100.00
59110;BME280;44895;47.438;18.978;2022-12-18T06:26:49;101897.66;;;-4.52;100.00
59110;BME280;44895;47.438;18.978;2022-12-18T06:29:53;101900.75;;;-4.56;100.00
59110;BME280;44895;47.438;18.978;2022-12-18T06:32:57;101909.81;;;-4.31;100.00
59110;BME280;44895;47.438;18.978;2022-12-18T06:36:03;101914.50;;;-4.43;100.00
59110;BME280;44895;47.438;18.978;2022-12-18T06:39:07;101904.88;;;-4.26;100.00
59110;BME280;44895;47.438;18.978;2022-12-18T06:42:11;101919.81;;;-4.07;100.00
59110;BME280;44895;47.438;18.978;2022-12-18T06:45:15;101927.34;;;-4.20;100.00
59110;BME280;44895;47.438;18.978;2022-12-18T06:48:19;101924.38;;;-4.17;100.00
59110;BME280;44895;47.438;18.978;2022-12-18T06:51:24;101926.53;;;-4.31;100.00
59110;BME280;44895;47.438;18.978;2022-12-18T06:54:28;101924.34;;;-4.53;100.00
59110;BME280;44895;47.438;18.978;2022-12-18T06:57:33;101933.25;;;-4.27;100.00
59110;BME280;44895;47.438;18.978;2022-12-18T07:00:37;101936.66;;;-4.16;100.00
59110;BME280;44895;47.438;18.978;2022-12-18T07:03:42;101952.28;;;-4.13;100.00
59110;BME280;44895;47.438;18.978;2022-12-18T07:06:46;101951.50;;;-4.23;100.00
59110;BME280;44895;47.438;18.978;2022-12-18T07:09:50;101955.69;;;-4.21;100.00
59110;BME280;44895;47.438;18.978;2022-12-18T07:12:54;101961.84;;;-4.20;100.00
59110;BME280;44895;47.438;18.978;2022-12-18T07:19:10;101969.00;;;-3.40;100.00
59110;BME280;44895;47.438;18.978;2022-12-18T07:22:14;101977.16;;;-3.78;100.00
59110;BME280;44895;47.438;18.978;2022-12-18T07:25:18;101978.50;;;-3.12;100.00
59110;BME280;44895;47.438;18.978;2022-12-18T07:28:22;101983.06;;;-2.26;100.00
59110;BME280;44895;47.438;18.978;2022-12-18T07:31:27;101994.81;;;-1.70;100.00
59110;BME280;44895;47.438;18.978;2022-12-18T07:34:31;101990.78;;;-1.08;100.00
59110;BME280;44895;47.438;18.978;2022-12-18T07:37:34;101992.78;;;-0.54;100.00
59110;BME280;44895;47.438;18.978;2022-12-18T07:40:38;101996.41;;;-2.10;100.00
59110;BME280;44895;47.438;18.978;2022-12-18T07:43:43;101997.81;;;-1.56;100.00
59110;BME280;44895;47.438;18.978;2022-12-18T07:46:47;101995.84;;;1.06;100.00
59110;BME280;44895;47.438;18.978;2022-12-18T07:49:51;101987.44;;;3.47;100.00
59110;BME280;44895;47.438;18.978;2022-12-18T07:52:55;101994.63;;;3.88;98.82
59110;BME280;44895;47.438;18.978;2022-12-18T07:56:08;102013.13;;;2.43;99.20
59110;BME280;44895;47.438;18.978;2022-12-18T07:59:12;102021.19;;;0.57;100.00
59110;BME280;44895;47.438;18.978;2022-12-18T08:02:16;102030.81;;;1.04;100.00
59110;BME280;44895;47.438;18.978;2022-12-18T08:05:20;102034.34;;;1.35;100.00
59110;BME280;44895;47.438;18.978;2022-12-18T08:08:24;102037.47;;;1.53;100.00
59110;BME280;44895;47.438;18.978;2022-12-18T08:11:28;102039.19;;;1.76;100.00
59110;BME280;44895;47.438;18.978;2022-12-18T08:14:32;102034.47;;;2.51;100.00
59110;BME280;44895;47.438;18.978;2022-12-18T08:17:37;102030.50;;;4.22;97.55
59110;BME280;44895;47.438;18.978;2022-12-18T08:20:40;102034.63;;;4.25;93.60
59110;BME280;44895;47.438;18.978;2022-12-18T08:23:44;102029.00;;;5.41;80.79
59110;BME280;44895;47.438;18.978;2022-12-18T08:26:48;102034.13;;;3.95;90.61
59110;BME280;44895;47.438;18.978;2022-12-18T08:29:52;102041.34;;;2.39;99.88
59110;BME280;44895;47.438;18.978;2022-12-18T08:32:57;102050.13;;;1.29;100.00
59110;BME280;44895;47.438;18.978;2022-12-18T08:36:03;102053.16;;;3.45;100.00
59110;BME280;44895;47.438;18.978;2022-12-18T08:39:07;102055.63;;;2.03;100.00
59110;BME280;44895;47.438;18.978;2022-12-18T08:42:11;102053.50;;;2.35;100.00
59110;BME280;44895;47.438;18.978;2022-12-18T08:45:33;102060.69;;;1.98;100.00
59110;BME280;44895;47.438;18.978;2022-12-18T08:48:37;102047.41;;;2.26;100.00
59110;BME280;44895;47.438;18.978;2022-12-18T08:51:41;102045.75;;;3.18;100.00
59110;BME280;44895;47.438;18.978;2022-12-18T08:54:45;102056.47;;;3.53;100.00
59110;BME280;44895;47.438;18.978;2022-12-18T08:57:49;102045.66;;;4.84;87.03
59110;BME280;44895;47.438;18.978;2022-12-18T09:00:54;102053.88;;;6.47;77.68
59110;BME280;44895;47.438;18.978;2022-12-18T09:03:57;102052.28;;;8.38;59.80
59110;BME280;44895;47.438;18.978;2022-12-18T09:07:01;102061.94;;;11.09;50.57
59110;BME280;44895;47.438;18.978;2022-12-18T09:10:06;102059.25;;;10.75;47.50
59110;BME280;44895;47.438;18.978;2022-12-18T09:13:11;102077.97;;;3.95;64.21
59110;BME280;44895;47.438;18.978;2022-12-18T09:16:16;102088.78;;;2.17;97.92
59110;BME280;44895;47.438;18.978;2022-12-18T09:19:20;102097.97;;;1.62;100.00
59110;BME280;44895;47.438;18.978;2022-12-18T09:22:24;102091.41;;;1.65;100.00
59110;BME280;44895;47.438;18.978;2022-12-18T09:25:29;102075.31;;;2.32;100.00
59110;BME280;44895;47.438;18.978;2022-12-18T09:28:37;102071.31;;;2.86;100.00
59110;BME280;44895;47.438;18.978;2022-12-18T09:31:41;102081.81;;;1.41;100.00
59110;BME280;44895;47.438;18.978;2022-12-18T09:34:45;102083.50;;;1.04;100.00
59110;BME280;44895;47.438;18.978;2022-12-18T09:37:49;102081.28;;;1.07;100.00
59110;BME280;44895;47.438;18.978;2022-12-18T09:40:57;102077.88;;;1.13;100.00
59110;BME280;44895;47.438;18.978;2022-12-18T09:44:10;102080.38;;;1.15;100.00
59110;BME280;44895;47.438;18.978;2022-12-18T09:50:32;102090.88;;;1.02;100.00
59110;BME280;44895;47.438;18.978;2022-12-18T09:53:38;102085.06;;;1.51;100.00
59110;BME280;44895;47.438;18.978;2022-12-18T09:56:44;102083.09;;;1.30;100.00
59110;BME280;44895;47.438;18.978;2022-12-18T09:59:53;102085.47;;;2.36;100.00
59110;BME280;44895;47.438;18.978;2022-12-18T10:03:01;102075.13;;;3.55;100.00
59110;BME280;44895;47.438;18.978;2022-12-18T10:06:18;102073.19;;;4.52;86.29
59110;BME280;44895;47.438;18.978;2022-12-18T10:09:37;102070.41;;;3.00;93.03
59110;BME280;44895;47.438;18.978;2022-12-18T10:12:55;102054.97;;;5.01;87.68
59110;BME280;44895;47.438;18.978;2022-12-18T10:16:10;102062.50;;;7.13;68.58
59110;BME280;44895;47.438;18.978;2022-12-18T10:26:08;102044.88;;;9.88;49.41
59110;BME280;44895;47.438;18.978;2022-12-18T10:29:14;102050.81;;;8.24;53.35
59110;BME280;44895;47.438;18.978;2022-12-18T10:32:27;102058.41;;;5.62;62.28
59110;BME280;44895;47.438;18.978;2022-12-18T10:35:32;102059.91;;;4.37;75.53
59110;BME280;44895;47.438;18.978;2022-12-18T10:38:36;102061.16;;;4.41;81.16
59110;BME280;44895;47.438;18.978;2022-12-18T10:41:41;102065.84;;;3.64;94.20
59110;BME280;44895;47.438;18.978;2022-12-18T10:44:45;102059.44;;;3.65;95.53
59110;BME280;44895;47.438;18.978;2022-12-18T10:47:49;102057.59;;;4.21;95.41
59110;BME280;44895;47.438;18.978;2022-12-18T10:50:54;102064.31;;;3.48;100.00
59110;BME280;44895;47.438;18.978;2022-12-18T10:54:14;102061.81;;;3.47;100.00
59110;BME280;44895;47.438;18.978;2022-12-18T11:00:30;102064.91;;;3.15;100.00
59110;BME280;44895;47.438;18.978;2022-12-18T11:10:03;102048.53;;;3.03;100.00
59110;BME280;44895;47.438;18.978;2022-12-18T11:13:15;102048.72;;;3.02;100.00
59110;BME280;44895;47.438;18.978;2022-12-18T11:16:20;102051.66;;;3.07;100.00
59110;BME280;44895;47.438;18.978;2022-12-18T11:19:34;102055.00;;;2.87;100.00
59110;BME280;44895;47.438;18.978;2022-12-18T11:22:39;102041.94;;;2.77;100.00
59110;BME280;44895;47.438;18.978;2022-12-18T11:25:58;102042.38;;;2.59;100.00
59110;BME280;44895;47.438;18.978;2022-12-18T11:29:15;102045.94;;;2.67;100.00
59110;BME280;44895;47.438;18.978;2022-12-18T11:32:29;102046.72;;;2.60;100.00
59110;BME280;44895;47.438;18.978;2022-12-18T11:38:47;102036.00;;;2.60;100.00
59110;BME280;44895;47.438;18.978;2022-12-18T11:41:58;102035.50;;;2.78;100.00
59110;BME280;44895;47.438;18.978;2022-12-18T11:51:33;102032.91;;;2.85;99.67
59110;BME280;44895;47.438;18.978;2022-12-18T11:54:38;102029.19;;;2.65;99.11
59110;BME280;44895;47.438;18.978;2022-12-18T12:01:47;102023.03;;;2.92;97.53
59110;BME280;44895;47.438;18.978;2022-12-18T12:05:18;102018.72;;;2.91;100.00
59110;BME280;44895;47.438;18.978;2022-12-18T12:11:53;102019.47;;;3.14;92.85
59110;BME280;44895;47.438;18.978;2022-12-18T12:21:54;102024.75;;;3.35;89.96
59110;BME280;44895;47.438;18.978;2022-12-18T12:28:34;102024.16;;;3.33;97.41
59110;BME280;44895;47.438;18.978;2022-12-18T12:38:42;102023.38;;;3.11;93.42
59110;BME280;44895;47.438;18.978;2022-12-18T12:41:47;102012.66;;;3.18;90.08
59110;BME280;44895;47.438;18.978;2022-12-18T12:45:18;102021.28;;;3.41;90.26
59110;BME280;44895;47.438;18.978;2022-12-18T12:48:27;102033.91;;;3.41;98.34
59110;BME280;44895;47.438;18.978;2022-12-18T12:51:37;102031.66;;;3.45;92.55
59110;BME280;44895;47.438;18.978;2022-12-18T12:54:44;102044.13;;;3.24;95.86
59110;BME280;44895;47.438;18.978;2022-12-18T12:58:05;102038.50;;;3.19;96.62
59110;BME280;44895;47.438;18.978;2022-12-18T13:01:32;102054.28;;;3.29;100.00
59110;BME280;44895;47.438;18.978;2022-12-18T13:08:11;102056.56;;;3.03;94.72
59110;BME280;44895;47.438;18.978;2022-12-18T13:11:36;102056.97;;;2.78;100.00
59110;BME280;44895;47.438;18.978;2022-12-18T13:15:13;102060.88;;;2.76;100.00
59110;BME280;44895;47.438;18.978;2022-12-18T13:18:24;102071.88;;;2.81;100.00
59110;BME280;44895;47.438;18.978;2022-12-18T13:21:32;102062.06;;;2.67;100.00
59110;BME280;44895;47.438;18.978;2022-12-18T13:24:37;102060.94;;;2.39;100.00
59110;BME280;44895;47.438;18.978;2022-12-18T13:30:55;102063.97;;;2.51;100.00
59110;BME280;44895;47.438;18.978;2022-12-18T13:43:44;102071.59;;;1.96;100.00
59110;BME280;44895;47.438;18.978;2022-12-18T13:46:50;102089.09;;;1.77;100.00
59110;BME280;44895;47.438;18.978;2022-12-18T13:49:54;102092.91;;;1.53;100.00
59110;BME280;44895;47.438;18.978;2022-12-18T13:52:58;102095.25;;;1.18;100.00
59110;BME280;44895;47.438;18.978;2022-12-18T13:56:03;102092.84;;;0.85;100.00
59110;BME280;44895;47.438;18.978;2022-12-18T14:02:15;102095.97;;;1.11;100.00
59110;BME280;44895;47.438;18.978;2022-12-18T14:05:35;102104.31;;;0.93;100.00
59110;BME280;44895;47.438;18.978;2022-12-18T14:08:41;102105.47;;;0.76;100.00
59110;BME280;44895;47.438;18.978;2022-12-18T14:11:48;102106.13;;;0.55;100.00
59110;BME280;44895;47.438;18.978;2022-12-18T14:14:53;102102.41;;;0.56;100.00
59110;BME280;44895;47.438;18.978;2022-12-18T14:18:00;102110.22;;;0.65;100.00
59110;BME280;44895;47.438;18.978;2022-12-18T14:21:05;102113.25;;;0.62;100.00
59110;BME280;44895;47.438;18.978;2022-12-18T14:24:16;102108.84;;;0.46;100.00
59110;BME280;44895;47.438;18.978;2022-12-18T14:27:25;102102.88;;;0.36;100.00
59110;BME280;44895;47.438;18.978;2022-12-18T14:30:41;102110.88;;;0.13;100.00
59110;BME280;44895;47.438;18.978;2022-12-18T14:33:45;102116.41;;;0.03;100.00
59110;BME280;44895;47.438;18.978;2022-12-18T14:36:52;102113.69;;;-0.28;100.00
59110;BME280;44895;47.438;18.978;2022-12-18T14:39:59;102122.81;;;-0.71;100.00
59110;BME280;44895;47.438;18.978;2022-12-18T14:43:04;102127.13;;;-0.78;100.00
59110;BME280;44895;47.438;18.978;2022-12-18T14:49:33;102138.63;;;-1.10;100.00
59110;BME280;44895;47.438;18.978;2022-12-18T14:52:38;102144.31;;;-1.13;100.00
59110;BME280;44895;47.438;18.978;2022-12-18T14:55:48;102155.13;;;-1.23;100.00
59110;BME280;44895;47.438;18.978;2022-12-18T14:58:56;102158.94;;;-1.42;100.00
59110;BME280;44895;47.438;18.978;2022-12-18T15:02:14;102154.88;;;-1.55;100.00
59110;BME280;44895;47.438;18.978;2022-12-18T15:05:26;102160.78;;;-1.35;100.00
59110;BME280;44895;47.438;18.978;2022-12-18T15:08:36;102160.41;;;-1.56;100.00
59110;BME280;44895;47.438;18.978;2022-12-18T15:14:45;102177.03;;;-1.62;100.00
59110;BME280;44895;47.438;18.978;2022-12-18T15:17:56;102174.72;;;-1.57;100.00
59110;BME280;44895;47.438;18.978;2022-12-18T15:21:09;102182.00;;;-1.68;100.00
59110;BME280;44895;47.438;18.978;2022-12-18T15:24:21;102188.13;;;-1.84;100.00
59110;BME280;44895;47.438;18.978;2022-12-18T15:27:36;102191.00;;;-2.03;100.00
59110;BME280;44895;47.438;18.978;2022-12-18T15:31:02;102197.81;;;-2.09;100.00
59110;BME280;44895;47.438;18.978;2022-12-18T15:34:13;102209.31;;;-2.00;100.00
59110;BME280;44895;47.438;18.978;2022-12-18T15:37:18;102211.41;;;-2.20;100.00
59110;BME280;44895;47.438;18.978;2022-12-18T15:40:24;102215.47;;;-2.34;100.00
59110;BME280;44895;47.438;18.978;2022-12-18T15:43:28;102216.28;;;-2.34;100.00
59110;BME280;44895;47.438;18.978;2022-12-18T15:46:39;102219.81;;;-2.51;100.00
59110;BME280;44895;47.438;18.978;2022-12-18T15:49:44;102221.94;;;-2.55;100.00
59110;BME280;44895;47.438;18.978;2022-12-18T15:52:52;102232.72;;;-2.38;100.00
59110;BME280;44895;47.438;18.978;2022-12-18T15:55:58;102228.34;;;-2.66;100.00
59110;BME280;44895;47.438;18.978;2022-12-18T15:59:23;102235.94;;;-2.53;100.00
59110;BME280;44895;47.438;18.978;2022-12-18T16:02:27;102235.97;;;-2.71;100.00
59110;BME280;44895;47.438;18.978;2022-12-18T16:05:32;102242.47;;;-2.65;100.00
59110;BME280;44895;47.438;18.978;2022-12-18T16:08:37;102245.31;;;-2.85;100.00
59110;BME280;44895;47.438;18.978;2022-12-18T16:11:42;102245.63;;;-2.70;100.00
59110;BME280;44895;47.438;18.978;2022-12-18T16:14:49;102250.69;;;-2.76;100.00
59110;BME280;44895;47.438;18.978;2022-12-18T16:17:54;102249.63;;;-3.02;100.00
59110;BME280;44895;47.438;18.978;2022-12-18T16:20:59;102255.09;;;-3.03;100.00
59110;BME280;44895;47.438;18.978;2022-12-18T16:24:04;102253.28;;;-2.85;100.00
59110;BME280;44895;47.438;18.978;2022-12-18T16:27:08;102264.31;;;-2.98;100.00
59110;BME280;44895;47.438;18.978;2022-12-18T16:30:18;102266.09;;;-2.98;100.00
59110;BME280;44895;47.438;18.978;2022-12-18T16:33:23;102271.19;;;-3.05;100.00
59110;BME280;44895;47.438;18.978;2022-12-18T16:36:27;102273.47;;;-3.10;100.00
59110;BME280;44895;47.438;18.978;2022-12-18T16:39:36;102272.38;;;-3.17;100.00
59110;BME280;44895;47.438;18.978;2022-12-18T16:42:43;102271.81;;;-3.11;100.00
59110;BME280;44895;47.438;18.978;2022-12-18T16:45:47;102277.81;;;-3.65;100.00
59110;BME280;44895;47.438;18.978;2022-12-18T16:48:52;102284.84;;;-3.46;100.00
59110;BME280;44895;47.438;18.978;2022-12-18T16:51:58;102279.53;;;-3.46;100.00
59110;BME280;44895;47.438;18.978;2022-12-18T16:55:04;102291.56;;;-3.51;100.00
59110;BME280;44895;47.438;18.978;2022-12-18T16:58:10;102284.94;;;-3.75;100.00
59110;BME280;44895;47.438;18.978;2022-12-18T17:01:14;102283.38;;;-3.68;100.00
59110;BME280;44895;47.438;18.978;2022-12-18T17:04:19;102284.53;;;-3.80;100.00
59110;BME280;44895;47.438;18.978;2022-12-18T17:07:25;102277.84;;;-3.74;100.00
59110;BME280;44895;47.438;18.978;2022-12-18T17:10:33;102274.53;;;-3.58;100.00
59110;BME280;44895;47.438;18.978;2022-12-18T17:13:38;102271.47;;;-4.01;100.00
59110;BME280;44895;47.438;18.978;2022-12-18T17:16:43;102264.66;;;-4.04;100.00
59110;BME280;44895;47.438;18.978;2022-12-18T17:19:48;102268.91;;;-3.83;100.00
59110;BME280;44895;47.438;18.978;2022-12-18T17:22:52;102263.06;;;-3.97;100.00
59110;BME280;44895;47.438;18.978;2022-12-18T17:26:11;102269.00;;;-4.13;100.00
59110;BME280;44895;47.438;18.978;2022-12-18T17:29:18;102269.09;;;-3.95;100.00
59110;BME280;44895;47.438;18.978;2022-12-18T17:32:23;102275.69;;;-4.18;100.00
59110;BME280;44895;47.438;18.978;2022-12-18T17:35:28;102264.75;;;-3.96;100.00
59110;BME280;44895;47.438;18.978;2022-12-18T17:38:34;102277.94;;;-4.23;100.00